createdAt,value
2023-05-12T00:00:59.370Z,8.85
2023-05-12T00:03:26.256Z,7.65
2023-05-12T00:05:53.700Z,8.20
2023-05-12T00:08:20.379Z,7.70
2023-05-12T00:10:46.990Z,7.70
2023-05-12T00:13:14.222Z,8.30
2023-05-12T00:15:41.306Z,7.93
2023-05-12T00:18:07.984Z,8.52
2023-05-12T00:20:34.723Z,8.85
2023-05-12T00:23:01.394Z,9.20
2023-05-12T00:25:27.989Z,9.52
2023-05-12T00:27:54.737Z,8.93
2023-05-12T00:30:21.548Z,9.60
2023-05-12T00:32:49.112Z,9.60
2023-05-12T00:35:16.909Z,9.32
2023-05-12T00:37:44.361Z,7.63
2023-05-12T00:40:11.391Z,8.15
2023-05-12T00:42:38.342Z,8.70
2023-05-12T00:45:07.356Z,7.68
2023-05-12T00:47:34.420Z,7.50
2023-05-12T00:50:01.202Z,7.20
2023-05-12T00:52:27.985Z,7.03
2023-05-12T00:54:55.144Z,6.25
2023-05-12T00:57:22.702Z,6.60
2023-05-12T00:59:49.429Z,6.45
2023-05-12T01:02:16.176Z,5.75
2023-05-12T01:04:42.908Z,6.13
2023-05-12T01:07:30.756Z,7.78
2023-05-12T01:09:58.003Z,7.00
2023-05-12T01:12:25.865Z,7.40
2023-05-12T01:14:54.627Z,6.95
2023-05-12T01:17:28.117Z,6.03
2023-05-12T01:19:58.493Z,6.82
2023-05-12T01:22:28.792Z,6.15
2023-05-12T01:24:59.614Z,6.10
2023-05-12T01:27:27.514Z,6.03
2023-05-12T01:29:57.726Z,6.05
2023-05-12T01:32:24.488Z,7.05
2023-05-12T01:34:51.080Z,6.70
2023-05-12T01:37:17.958Z,6.60
2023-05-12T01:39:44.878Z,6.00
2023-05-12T01:42:11.825Z,4.28
2023-05-12T01:44:38.928Z,3.67
2023-05-12T01:47:09.682Z,2.80
2023-05-12T01:49:36.296Z,2.17
2023-05-12T01:52:03.122Z,1.60
2023-05-12T01:54:29.930Z,1.25
2023-05-12T01:56:56.557Z,2.10
2023-05-12T01:59:23.225Z,1.70
2023-05-12T02:01:50.005Z,2.08
2023-05-12T02:04:16.776Z,2.05
2023-05-12T02:06:43.374Z,1.60
2023-05-12T02:09:09.934Z,1.50
2023-05-12T02:11:37.349Z,1.35
2023-05-12T02:14:03.916Z,1.45
2023-05-12T02:16:30.525Z,1.10
2023-05-12T02:18:57.075Z,1.48
2023-05-12T02:21:23.727Z,1.70
2023-05-12T02:23:50.536Z,1.60
2023-05-12T02:26:17.235Z,1.60
2023-05-12T02:28:43.838Z,2.13
2023-05-12T02:31:10.432Z,2.00
2023-05-12T02:33:37.040Z,1.90
2023-05-12T02:36:03.848Z,2.30
2023-05-12T02:38:30.757Z,2.20
2023-05-12T02:40:57.508Z,2.60
2023-05-12T02:43:24.085Z,2.63
2023-05-12T02:45:51.686Z,2.47
2023-05-12T02:48:18.361Z,2.92
2023-05-12T02:50:45.602Z,2.50
2023-05-12T02:53:12.162Z,2.70
2023-05-12T02:55:39.051Z,2.60
2023-05-12T02:58:05.788Z,2.10
2023-05-12T03:00:32.382Z,2.72
2023-05-12T03:02:59.038Z,2.70
2023-05-12T03:05:25.655Z,2.65
2023-05-12T03:07:52.215Z,3.13
2023-05-12T03:10:19.032Z,3.00
2023-05-12T03:12:46.029Z,3.03
2023-05-12T03:15:12.620Z,3.08
2023-05-12T03:17:39.370Z,3.17
2023-05-12T03:20:06.835Z,2.90
2023-05-12T03:22:33.695Z,3.28
2023-05-12T03:25:00.340Z,3.22
2023-05-12T03:27:27.083Z,3.22
2023-05-12T03:29:53.652Z,3.58
2023-05-12T03:32:20.308Z,3.30
2023-05-12T03:34:47.139Z,3.42
2023-05-12T03:37:13.693Z,3.85
2023-05-12T03:39:40.318Z,4.10
2023-05-12T03:42:07.085Z,4.10
2023-05-12T03:44:33.652Z,4.50
2023-05-12T03:47:00.298Z,4.72
2023-05-12T03:49:26.895Z,5.00
2023-05-12T03:51:53.694Z,5.30
2023-05-12T03:54:20.200Z,4.50
2023-05-12T03:56:46.986Z,5.72
2023-05-12T03:59:13.656Z,6.32
2023-05-12T04:01:40.670Z,5.30
2023-05-12T04:04:07.333Z,5.93
2023-05-12T04:06:34.145Z,5.30
2023-05-12T04:09:01.070Z,5.95
2023-05-12T04:11:27.966Z,6.82
2023-05-12T04:13:55.022Z,7.18
2023-05-12T04:16:22.493Z,7.63
2023-05-12T04:18:49.326Z,7.15
2023-05-12T04:21:16.067Z,7.50
2023-05-12T04:23:42.672Z,8.02
2023-05-12T04:26:09.312Z,7.90
2023-05-12T04:28:36.977Z,7.20
2023-05-12T04:31:04.435Z,7.05
2023-05-12T04:33:31.347Z,6.28
2023-05-12T04:35:58.859Z,7.50
2023-05-12T04:38:26.094Z,7.70
2023-05-12T04:40:57.278Z,7.43
2023-05-12T04:45:55.221Z,6.13
2023-05-12T04:48:22.243Z,6.20
2023-05-12T04:50:49.181Z,6.20
2023-05-12T04:53:16.612Z,6.00
2023-05-12T04:55:45.760Z,5.88
2023-05-12T04:58:16.064Z,6.15
2023-05-12T05:00:43.054Z,5.53
2023-05-12T05:03:09.744Z,5.90
2023-05-12T05:05:36.440Z,5.25
2023-05-12T05:08:03.002Z,5.75
2023-05-12T05:10:29.777Z,6.07
2023-05-12T05:12:56.568Z,6.93
2023-05-12T05:15:23.537Z,6.60
2023-05-12T05:17:50.219Z,6.28
2023-05-12T05:20:17.470Z,7.40
2023-05-12T05:22:44.241Z,6.00
2023-05-12T05:25:11.179Z,6.40
2023-05-12T05:27:38.777Z,7.07
2023-05-12T05:30:11.869Z,6.88
2023-05-12T05:32:40.294Z,7.50
2023-05-12T05:35:08.240Z,6.03
2023-05-12T05:37:35.108Z,6.57
2023-05-12T05:40:01.804Z,6.65
2023-05-12T05:42:28.397Z,6.72
2023-05-12T05:44:54.931Z,6.43
2023-05-12T05:47:21.600Z,6.30
2023-05-12T05:49:48.231Z,6.35
2023-05-12T05:52:14.843Z,6.53
2023-05-12T05:54:41.493Z,6.45
2023-05-12T05:57:08.058Z,6.40
2023-05-12T05:59:34.790Z,6.45
2023-05-12T06:02:01.430Z,6.72
2023-05-12T06:04:28.285Z,7.00
2023-05-12T06:06:55.189Z,6.30
2023-05-12T06:09:21.802Z,6.20
2023-05-12T06:11:48.464Z,6.78
2023-05-12T06:14:15.164Z,6.40
2023-05-12T06:16:41.884Z,6.38
2023-05-12T06:19:09.242Z,6.18
2023-05-12T06:21:35.835Z,6.75
2023-05-12T06:24:02.629Z,6.28
2023-05-12T06:26:29.298Z,5.93
2023-05-12T06:28:56.231Z,5.80
2023-05-12T06:31:22.919Z,5.45
2023-05-12T06:33:49.985Z,4.60
2023-05-12T06:36:16.704Z,5.10
2023-05-12T06:38:43.339Z,5.30
2023-05-12T06:41:09.866Z,4.85
2023-05-12T06:43:36.367Z,5.10
2023-05-12T06:46:03.152Z,4.47
2023-05-12T06:48:29.704Z,4.60
2023-05-12T06:50:56.251Z,4.75
2023-05-12T06:53:24.917Z,4.88
2023-05-12T06:55:53.467Z,4.22
2023-05-12T06:58:21.924Z,5.00
2023-05-12T07:00:48.694Z,4.72
2023-05-12T07:03:15.456Z,4.60
2023-05-12T07:05:42.119Z,4.80
2023-05-12T07:08:08.721Z,4.78
2023-05-12T07:10:35.286Z,4.57
2023-05-12T07:13:02.007Z,4.60
2023-05-12T07:15:30.067Z,4.40
2023-05-12T07:17:58.552Z,5.25
2023-05-12T07:20:25.191Z,4.53
2023-05-12T07:22:54.512Z,4.68
2023-05-12T07:25:21.787Z,4.78
2023-05-12T07:27:49.112Z,4.38
2023-05-12T07:30:16.271Z,5.10
2023-05-12T07:32:43.032Z,4.57
2023-05-12T07:35:10.537Z,5.18
2023-05-12T07:37:37.241Z,4.78
2023-05-12T07:40:04.758Z,4.45
2023-05-12T07:42:31.428Z,4.72
2023-05-12T07:44:58.075Z,4.82
2023-05-12T07:47:24.617Z,4.95
2023-05-12T07:49:51.122Z,5.25
2023-05-12T07:52:17.637Z,4.95
2023-05-12T07:54:44.252Z,5.00
2023-05-12T07:57:11.206Z,5.07
2023-05-12T07:59:37.920Z,4.50
2023-05-12T08:02:04.652Z,4.60
2023-05-12T08:04:31.539Z,4.85
2023-05-12T08:06:58.299Z,5.10
2023-05-12T08:09:24.885Z,4.75
2023-05-12T08:11:51.918Z,4.05
2023-05-12T08:14:18.704Z,4.28
2023-05-12T08:16:46.382Z,4.10
2023-05-12T08:19:13.888Z,4.65
2023-05-12T08:21:40.632Z,4.47
2023-05-12T08:24:07.219Z,4.30
2023-05-12T08:26:33.822Z,4.60
2023-05-12T08:29:00.362Z,4.32
2023-05-12T08:31:27.317Z,4.30
2023-05-12T08:34:09.192Z,4.80
2023-05-12T08:36:37.896Z,4.28
2023-05-12T08:39:04.860Z,4.28
2023-05-12T08:41:44.387Z,3.85
2023-05-12T08:44:15.697Z,4.20
2023-05-12T08:46:42.404Z,4.13
2023-05-12T08:49:16.785Z,4.13
2023-05-12T08:51:49.864Z,4.10
2023-05-12T08:54:22.624Z,4.07
2023-05-12T08:59:23.052Z,3.90
2023-05-12T09:01:50.732Z,3.83
2023-05-12T09:04:17.951Z,3.90
2023-05-12T09:06:45.862Z,4.10
2023-05-12T09:09:14.104Z,3.40
2023-05-12T09:11:42.538Z,4.00
2023-05-12T09:14:18.816Z,3.78
2023-05-12T09:16:49.023Z,4.10
2023-05-12T09:19:20.740Z,3.90
2023-05-12T09:21:48.036Z,4.13
2023-05-12T09:24:14.789Z,4.47
2023-05-12T09:26:52.186Z,3.80
2023-05-12T09:29:30.504Z,3.97
2023-05-12T09:32:01.926Z,3.97
2023-05-12T09:34:30.946Z,3.75
2023-05-12T09:36:59.898Z,3.65
2023-05-12T09:39:26.998Z,3.17
2023-05-12T09:41:53.802Z,3.20
2023-05-12T09:44:21.405Z,3.50
2023-05-12T09:46:48.475Z,3.47
2023-05-12T09:49:20.290Z,3.10
2023-05-12T09:51:47.338Z,3.58
2023-05-12T09:54:30.348Z,3.05
2023-05-12T09:57:02.445Z,3.33
2023-05-12T09:59:32.531Z,3.58
2023-05-12T10:02:05.285Z,3.33
2023-05-12T10:04:49.792Z,3.42
2023-05-12T10:07:17.943Z,3.10
2023-05-12T10:09:45.586Z,3.13
2023-05-12T10:12:12.946Z,3.90
2023-05-12T10:14:40.781Z,3.35
2023-05-12T10:17:08.049Z,3.25
2023-05-12T10:19:35.543Z,3.30
2023-05-12T10:22:02.665Z,3.42
2023-05-12T10:24:29.268Z,3.47
2023-05-12T10:26:59.465Z,3.05
2023-05-12T10:29:29.672Z,3.40
2023-05-12T10:31:57.646Z,3.50
2023-05-12T10:34:33.900Z,3.30
2023-05-12T10:37:00.816Z,2.90
2023-05-12T10:39:32.931Z,3.38
2023-05-12T10:42:09.891Z,3.00
2023-05-12T10:44:47.831Z,2.90
2023-05-12T10:47:17.267Z,2.92
2023-05-12T10:49:44.105Z,2.92
2023-05-12T10:52:19.479Z,2.92
2023-05-12T10:54:47.583Z,2.50
2023-05-12T10:57:20.874Z,2.80
2023-05-12T10:59:50.141Z,2.28
2023-05-12T11:02:20.356Z,2.53
2023-05-12T11:04:53.560Z,2.40
2023-05-12T11:07:22.771Z,2.33
2023-05-12T11:09:58.619Z,2.00
2023-05-12T11:14:58.979Z,2.40
2023-05-12T11:17:26.069Z,2.00
2023-05-12T11:19:52.975Z,2.30
2023-05-12T11:22:21.967Z,2.15
2023-05-12T11:24:49.824Z,1.92
2023-05-12T11:27:18.367Z,1.98
2023-05-12T11:29:55.198Z,2.00
2023-05-12T11:32:25.149Z,2.00
2023-05-12T11:34:54.842Z,1.70
2023-05-12T11:37:26.620Z,1.73
2023-05-12T11:39:53.517Z,1.90
2023-05-12T11:42:22.794Z,1.80
2023-05-12T11:44:51.015Z,1.65
2023-05-12T11:47:20.334Z,2.30
2023-05-12T11:49:51.570Z,2.25
2023-05-12T11:52:20.034Z,2.40
2023-05-12T11:54:57.415Z,2.50
2023-05-12T11:57:37.711Z,2.45
2023-05-12T12:00:09.817Z,2.40
2023-05-12T12:02:43.509Z,2.08
2023-05-12T12:05:18.285Z,1.95
2023-05-12T12:07:45.419Z,2.00
2023-05-12T12:10:13.809Z,1.90
2023-05-12T12:12:42.023Z,1.80
2023-05-12T12:15:10.404Z,1.90
2023-05-12T12:17:37.477Z,1.88
2023-05-12T12:20:04.393Z,1.80
2023-05-12T12:22:34.377Z,1.70
2023-05-12T12:25:02.266Z,1.52
2023-05-12T12:27:28.793Z,1.52
2023-05-12T12:29:55.436Z,1.50
2023-05-12T12:32:21.987Z,1.40
2023-05-12T12:34:48.995Z,1.50
2023-05-12T12:37:16.062Z,1.40
2023-05-12T12:39:42.722Z,1.75
2023-05-12T12:42:09.531Z,1.55
2023-05-12T12:44:36.428Z,1.40
2023-05-12T12:47:03.356Z,1.42
2023-05-12T12:49:29.921Z,1.30
2023-05-12T12:51:56.518Z,1.20
2023-05-12T12:54:25.115Z,1.50
2023-05-12T12:56:51.876Z,1.52
2023-05-12T12:59:18.552Z,1.50
2023-05-12T13:01:45.150Z,1.52
2023-05-12T13:04:11.846Z,1.45
2023-05-12T13:06:38.440Z,1.60
2023-05-12T13:09:05.170Z,1.33
2023-05-12T13:11:31.977Z,1.85
2023-05-12T13:13:58.607Z,1.83
2023-05-12T13:16:25.444Z,1.38
2023-05-12T13:18:52.095Z,1.67
2023-05-12T13:21:18.710Z,1.60
2023-05-12T13:23:45.402Z,1.50
2023-05-12T13:26:11.981Z,1.50
2023-05-12T13:28:38.566Z,1.88
2023-05-12T13:31:06.045Z,1.90
2023-05-12T13:33:33.371Z,1.85
2023-05-12T13:35:59.959Z,2.00
2023-05-12T13:38:26.860Z,2.35
2023-05-12T13:40:53.495Z,2.00
2023-05-12T13:43:21.317Z,1.90
2023-05-12T13:45:48.012Z,2.00
2023-05-12T13:48:14.582Z,2.30
2023-05-12T13:50:41.428Z,2.30
2023-05-12T13:53:08.052Z,2.00
2023-05-12T13:55:39.949Z,2.10
2023-05-12T13:58:07.316Z,2.05
2023-05-12T14:00:33.942Z,1.85
2023-05-12T14:03:00.563Z,2.00
2023-05-12T14:05:27.290Z,1.80
2023-05-12T14:07:53.865Z,1.98
2023-05-12T14:10:20.496Z,2.03
2023-05-12T14:12:47.831Z,1.83
2023-05-12T14:15:26.575Z,1.80
2023-05-12T14:17:59.770Z,1.75
2023-05-12T14:20:26.368Z,1.50
2023-05-12T14:22:52.917Z,1.50
2023-05-12T14:25:20.071Z,1.80
2023-05-12T14:27:46.844Z,1.60
2023-05-12T14:30:13.989Z,1.67
2023-05-12T14:32:40.617Z,1.60
2023-05-12T14:35:08.428Z,1.60
2023-05-12T14:37:35.255Z,1.48
2023-05-12T14:40:01.987Z,1.48
2023-05-12T14:42:30.074Z,1.42
2023-05-12T14:44:57.102Z,1.70
2023-05-12T14:47:24.108Z,1.38
2023-05-12T14:49:51.049Z,1.38
2023-05-12T14:52:17.728Z,1.70
2023-05-12T14:54:44.320Z,1.20
2023-05-12T14:57:11.658Z,1.50
2023-05-12T14:59:38.521Z,1.40
2023-05-12T15:02:05.531Z,1.50
2023-05-12T15:04:32.171Z,1.50
2023-05-12T15:06:58.818Z,1.80
2023-05-12T15:09:25.413Z,1.60
2023-05-12T15:11:51.955Z,1.58
2023-05-12T15:14:18.510Z,1.60
2023-05-12T15:16:45.123Z,1.73
2023-05-12T15:19:12.015Z,1.50
2023-05-12T15:21:38.652Z,1.73
2023-05-12T15:24:06.204Z,1.70
2023-05-12T15:26:34.748Z,1.70
2023-05-12T15:29:02.770Z,1.90
2023-05-12T15:31:30.067Z,1.88
2023-05-12T15:33:57.442Z,1.70
2023-05-12T15:36:24.230Z,1.50
2023-05-12T15:38:50.843Z,2.00
2023-05-12T15:41:17.442Z,2.05
2023-05-12T15:43:44.185Z,1.60
2023-05-12T15:46:11.673Z,1.80
2023-05-12T15:48:39.076Z,1.75
2023-05-12T15:51:05.869Z,1.80
2023-05-12T15:53:32.519Z,2.10
2023-05-12T15:56:02.781Z,2.20
2023-05-12T15:58:29.570Z,1.85
2023-05-12T16:00:56.267Z,1.63
2023-05-12T16:03:23.660Z,2.00
2023-05-12T16:05:50.729Z,2.13
2023-05-12T16:08:17.537Z,2.08
2023-05-12T16:10:44.382Z,1.90
2023-05-12T16:13:11.001Z,1.83
2023-05-12T16:15:37.591Z,1.77
2023-05-12T16:18:05.502Z,1.77
2023-05-12T16:20:33.912Z,1.95
2023-05-12T16:23:00.532Z,2.00
2023-05-12T16:25:27.200Z,1.83
2023-05-12T16:27:53.887Z,2.20
2023-05-12T16:30:20.818Z,2.03
2023-05-12T16:32:47.680Z,2.10
2023-05-12T16:35:14.543Z,2.08
2023-05-12T16:37:41.251Z,2.20
2023-05-12T16:40:09.295Z,2.08
2023-05-12T16:42:36.451Z,1.95
2023-05-12T16:45:03.417Z,2.13
2023-05-12T16:47:30.077Z,2.22
2023-05-12T16:49:58.165Z,1.80
2023-05-12T16:52:25.569Z,1.92
2023-05-12T16:54:53.109Z,1.90
2023-05-12T16:57:20.819Z,1.80
2023-05-12T16:59:50.441Z,1.98
2023-05-12T17:02:17.143Z,1.90
2023-05-12T17:04:44.584Z,1.92
2023-05-12T17:07:11.418Z,2.10
2023-05-12T17:09:37.979Z,2.17
2023-05-12T17:12:06.617Z,2.10
2023-05-12T17:14:34.785Z,1.92
2023-05-12T17:17:01.412Z,2.00
2023-05-12T17:19:28.295Z,2.42
2023-05-12T17:21:54.863Z,1.88
2023-05-12T17:24:21.786Z,2.42
2023-05-12T17:26:48.417Z,2.17
2023-05-12T17:29:15.031Z,1.92
2023-05-12T17:31:41.726Z,1.80
2023-05-12T17:34:08.728Z,2.00
2023-05-12T17:36:35.565Z,1.92
2023-05-12T17:39:02.300Z,2.10
2023-05-12T17:41:29.431Z,2.10
2023-05-12T17:43:56.261Z,2.20
2023-05-12T17:46:23.053Z,2.20
2023-05-12T17:48:49.808Z,2.30
2023-05-12T17:51:16.828Z,2.50
2023-05-12T17:53:43.430Z,2.67
2023-05-12T17:56:10.242Z,2.90
2023-05-12T17:58:36.958Z,2.47
2023-05-12T18:01:03.581Z,2.90
2023-05-12T18:03:30.397Z,3.00
2023-05-12T18:05:57.173Z,2.63
2023-05-12T18:08:23.937Z,2.47
2023-05-12T18:10:51.157Z,2.90
2023-05-12T18:13:17.784Z,3.00
2023-05-12T18:15:44.439Z,2.95
2023-05-12T18:18:11.516Z,3.15
2023-05-12T18:20:38.235Z,3.03
2023-05-12T18:23:05.015Z,2.97
2023-05-12T18:25:31.607Z,3.25
2023-05-12T18:27:58.184Z,2.70
2023-05-12T18:30:24.802Z,2.97
2023-05-12T18:32:51.464Z,2.88
2023-05-12T18:35:18.300Z,3.20
2023-05-12T18:37:44.979Z,2.88
2023-05-12T18:40:12.145Z,2.70
2023-05-12T18:42:38.846Z,2.47
2023-05-12T18:45:06.164Z,2.90
2023-05-12T18:47:33.436Z,3.13
2023-05-12T18:50:00.231Z,3.00
2023-05-12T18:52:26.903Z,3.17
2023-05-12T18:54:53.556Z,3.20
2023-05-12T18:57:20.762Z,3.40
2023-05-12T18:59:47.466Z,4.07
2023-05-12T19:02:14.065Z,3.67
2023-05-12T19:04:40.758Z,3.85
2023-05-12T19:07:09.599Z,4.65
2023-05-12T19:09:37.072Z,5.05
2023-05-12T19:12:06.000Z,5.47
2023-05-12T19:14:32.912Z,4.97
2023-05-12T19:16:59.538Z,4.60
2023-05-12T19:19:26.161Z,4.20
2023-05-12T19:21:52.928Z,4.45
2023-05-12T19:24:19.613Z,4.30
2023-05-12T19:26:46.463Z,4.60
2023-05-12T19:29:13.207Z,4.68
2023-05-12T19:31:40.063Z,4.68
2023-05-12T19:34:07.093Z,4.88
2023-05-12T19:36:34.836Z,4.65
2023-05-12T19:39:02.148Z,5.28
2023-05-12T19:41:29.152Z,5.40
2023-05-12T19:43:56.198Z,5.43
2023-05-12T19:46:23.935Z,5.07
2023-05-12T19:48:51.741Z,5.35
2023-05-12T19:51:18.402Z,5.50
2023-05-12T19:53:44.921Z,5.28
2023-05-12T19:56:11.650Z,5.15
2023-05-12T19:58:38.399Z,5.30
2023-05-12T20:01:05.156Z,5.80
2023-05-12T20:03:32.117Z,5.65
2023-05-12T20:05:58.818Z,6.10
2023-05-12T20:08:25.638Z,5.50
2023-05-12T20:10:52.240Z,5.93
2023-05-12T20:13:18.795Z,5.50
2023-05-12T20:15:45.351Z,5.00
2023-05-12T20:18:14.289Z,5.20
2023-05-12T20:20:42.232Z,5.05
2023-05-12T20:23:09.035Z,5.47
2023-05-12T20:25:36.159Z,5.18
2023-05-12T20:28:03.101Z,5.93
2023-05-12T20:30:29.786Z,6.00
2023-05-12T20:32:56.480Z,5.68
2023-05-12T20:35:23.441Z,5.68
2023-05-12T20:37:50.455Z,5.68
2023-05-12T20:40:17.063Z,5.18
2023-05-12T20:42:48.890Z,8.10
2023-05-12T20:45:16.188Z,7.82
2023-05-12T20:47:42.873Z,5.85
2023-05-12T20:50:10.673Z,6.80
2023-05-12T20:52:37.905Z,6.25
2023-05-12T20:55:05.106Z,7.10
2023-05-12T20:57:31.741Z,7.00
2023-05-12T20:59:58.302Z,6.55
2023-05-12T21:02:26.696Z,6.80
2023-05-12T21:04:54.333Z,6.93
2023-05-12T21:07:20.982Z,7.47
2023-05-12T21:09:47.754Z,6.45
2023-05-12T21:12:14.388Z,6.68
2023-05-12T21:14:42.741Z,7.10
2023-05-12T21:17:10.550Z,6.93
2023-05-12T21:19:38.576Z,6.68
2023-05-12T21:22:06.908Z,6.63
2023-05-12T21:24:33.639Z,6.43
2023-05-12T21:27:04.368Z,6.53
2023-05-12T21:29:32.333Z,6.93
2023-05-12T21:31:59.650Z,6.35
2023-05-12T21:34:26.627Z,7.32
2023-05-12T21:36:54.475Z,6.90
2023-05-12T21:39:21.866Z,6.40
2023-05-12T21:41:48.701Z,7.07
2023-05-12T21:44:15.355Z,7.05
2023-05-12T21:46:42.424Z,6.38
2023-05-12T21:49:09.395Z,6.90
2023-05-12T21:51:35.962Z,7.10
2023-05-12T21:54:02.663Z,6.40
2023-05-12T21:56:29.249Z,6.88
2023-05-12T21:58:55.851Z,6.78
2023-05-12T22:01:22.509Z,7.10
2023-05-12T22:03:49.606Z,6.70
2023-05-12T22:06:16.597Z,6.40
2023-05-12T22:08:43.287Z,6.00
2023-05-12T22:11:09.962Z,6.18
2023-05-12T22:13:36.742Z,6.20
2023-05-12T22:16:03.814Z,6.20
2023-05-12T22:18:30.612Z,6.68
2023-05-12T22:20:57.426Z,6.38
2023-05-12T22:23:24.128Z,6.30
2023-05-12T22:25:50.717Z,6.60
2023-05-12T22:28:17.911Z,5.80
2023-05-12T22:30:44.532Z,6.07
2023-05-12T22:33:11.277Z,6.45
2023-05-12T22:35:37.851Z,6.65
2023-05-12T22:38:04.521Z,6.53
2023-05-12T22:40:32.656Z,6.10
2023-05-12T22:42:59.295Z,6.22
2023-05-12T22:45:25.999Z,6.03
2023-05-12T22:47:52.893Z,6.60
2023-05-12T22:50:19.984Z,5.57
2023-05-12T22:52:46.741Z,6.03
2023-05-12T22:55:13.367Z,6.00
2023-05-12T22:57:40.817Z,5.32
2023-05-12T23:00:08.132Z,5.80
2023-05-12T23:02:34.799Z,5.68
2023-05-12T23:05:01.363Z,5.78
2023-05-12T23:07:27.933Z,6.18
2023-05-12T23:09:54.472Z,5.60
2023-05-12T23:12:20.975Z,5.38
2023-05-12T23:14:47.683Z,5.22
2023-05-12T23:17:14.255Z,5.25
2023-05-12T23:19:41.004Z,5.70
2023-05-12T23:22:07.517Z,5.65
2023-05-12T23:24:35.859Z,5.13
2023-05-12T23:27:02.479Z,5.30
2023-05-12T23:29:29.011Z,5.07
2023-05-12T23:31:56.241Z,5.18
2023-05-12T23:34:22.939Z,5.22
2023-05-12T23:36:49.497Z,5.10
2023-05-12T23:39:16.374Z,5.20
2023-05-12T23:41:42.984Z,5.00
2023-05-12T23:44:09.606Z,5.53
2023-05-12T23:46:36.281Z,5.80
2023-05-12T23:49:03.449Z,5.50
2023-05-12T23:51:30.155Z,5.60
2023-05-12T23:53:56.792Z,5.75
2023-05-12T23:56:23.520Z,5.45
2023-05-12T23:58:50.157Z,5.90
